Alabaster, AL

7:03 PM CDT on July 29, 2015 (GMT -0500)
apache ridge | | Change Station
CLOSE
Current Station
Personal Weather Station
Location: Alabaster, AL
Elevation: 522 ft
Nearby Weather Stations

Elev 522 ft 33.25 °N, 86.83 °W | Updated 14 minutes ago

Partly Cloudy
Partly Cloudy
82.0 °F
Feels Like 91 °F
N
0.0
Wind Variable Wind from North

Today
High -- | Low -- °F
--% Chance of Precip.
Yesterday
High -- | Low -- °F
Precip. -- in
5:58 AM 7:49 PM
Waxing Gibbous, 97% visible
Pressure 29.96 in
Visibility 10.0 miles
Clouds Clear
Heat Index 91 °F
Dew Point 78 °F
Humidity 88%
Rainfall 0.60 in
Snow Depth Not available.
UV 1 out of 12
Pollen 3.00 out of 12
Air Quality Not available.
Flu Activity Not available.
METAR KEET 292353Z AUTO 35004KT 10SM CLR 28/24 A2999 RMK AO2 SLP146 60074 T02830239 10350 20233 51006

More Conditions Fewer Conditions

Pressure 29.96 in
Visibility 10.0 miles
Clouds Clear
Heat Index 91 °F
Dew Point 78 °F
Humidity 88%
Rainfall 0.60 in
Snow Depth Not available.
UV 1 out of 12
Pollen 3.00 out of 12
Air Quality Not available.
Flu Activity Not available.
METAR KEET 292353Z AUTO 35004KT 10SM CLR 28/24 A2999 RMK AO2 SLP146 60074 T02830239 10350 20233 51006

More Conditions Fewer Conditions

10-Day Weather Forecast

×

Almanac

Astronomy

Jul. 29, 2015 Rise Set
Actual Time
Civil Twilight
Nautical Twilight
Astronomical Twilight
Moon
Length of Visible Light
Length of Day
Tomorrow will be .
, % of the Moon is Illuminated

Today's Extremes

State Highs State Lows

Community

WunderPhotos

Upload Photos

1,842,204 photos uploaded!

WunderBlogs® & News

Nearby

Air Quality

  Air Quality AQ Index Pollutant
Not available.

Snow Depth

Station Depth Elevation

Earthquake Activity

City Distance Mag. Time & Date
Minimum magnitude displayed is 2.5.

Coastal Water Temperatures

Place Temperature

Stations

Nearby Weather Stations

Station Location Temp. Windchill Dew Point Humidity Wind Precip. Elev Updated Type